Terminal Aerodrome Forecast
Issued by NWS

Home | Current Version | Previous Version | Text Only | Print | Product List | Glossary On
Versions: 1 2 3 4 5 6 7 8 9 10 11 12 13 14 15 16 17 18 19 20 21 22 23 24 25 26 27 28 29 30 31 32 33
159
FTAK31 PAFA 270244 AAA
TAFAGA
TAF AMD
PAGA 270244Z 2703/2724 00000KT P6SM BKN006 OVC012
      TEMPO 2703/2705 SCT006 BKN012
     FM270500 VRB03KT P6SM SCT015
     FM270900 00000KT P6SM SCT005
     FM271100 00000KT 1SM BR BKN003
     FM272000 VRB03KT P6SM FEW020=

USA.gov is the U.S. government's official web portal to all federal, state and local government web resources and services.